createdAt,value
2019-02-20T00:00:29.310Z,70.70
2019-02-20T00:02:57.687Z,70.80
2019-02-20T00:05:26.892Z,70.60
2019-02-20T00:07:55.457Z,70.70
2019-02-20T00:10:24.014Z,70.80
2019-02-20T00:12:54.210Z,71.00
2019-02-20T00:15:22.738Z,71.20
2019-02-20T00:17:51.323Z,71.20
2019-02-20T00:20:20.141Z,71.40
2019-02-20T00:22:56.186Z,71.20
2019-02-20T00:25:25.094Z,71.30
2019-02-20T00:27:53.636Z,71.60
2019-02-20T00:30:22.195Z,72.20
2019-02-20T00:32:51.034Z,72.60
2019-02-20T00:35:19.929Z,73.00
2019-02-20T00:37:48.815Z,73.40
2019-02-20T00:40:17.360Z,73.80
2019-02-20T00:42:45.923Z,73.80
2019-02-20T00:45:19.122Z,74.40
2019-02-20T00:48:01.463Z,74.30
2019-02-20T00:50:31.648Z,74.20
2019-02-20T00:53:04.769Z,74.60
2019-02-20T00:55:33.338Z,75.10
2019-02-20T00:58:02.158Z,75.80
2019-02-20T01:00:30.743Z,76.20
2019-02-20T01:02:59.347Z,75.80
2019-02-20T01:05:27.887Z,75.40
2019-02-20T01:07:56.458Z,75.20
2019-02-20T01:10:25.073Z,75.10
2019-02-20T01:12:53.642Z,75.20
2019-02-20T01:15:22.206Z,75.20
2019-02-20T01:17:50.808Z,75.40
2019-02-20T01:20:19.702Z,75.50
2019-02-20T01:22:48.316Z,76.20
2019-02-20T01:25:16.932Z,76.90
2019-02-20T01:27:45.759Z,76.70
2019-02-20T01:30:14.375Z,77.00
2019-02-20T01:32:43.231Z,77.00
2019-02-20T01:35:14.632Z,77.10
2019-02-20T01:37:43.468Z,77.10
2019-02-20T01:40:12.159Z,77.20
2019-02-20T01:42:41.046Z,78.00
2019-02-20T01:45:09.658Z,78.50
2019-02-20T01:47:38.199Z,78.20
2019-02-20T01:50:07.621Z,78.50
2019-02-20T01:52:37.528Z,78.40
2019-02-20T01:55:08.006Z,78.70
2019-02-20T01:57:36.839Z,78.80
2019-02-20T02:00:08.683Z,78.50
2019-02-20T02:02:37.491Z,78.80
2019-02-20T02:05:14.923Z,77.90
2019-02-20T02:07:37.316Z,77.90
2019-02-20T02:10:08.098Z,77.90
2019-02-20T02:12:36.640Z,77.50
2019-02-20T02:15:07.667Z,77.90
2019-02-20T02:17:36.138Z,77.70
2019-02-20T02:20:07.121Z,77.70
2019-02-20T02:22:35.762Z,77.70
2019-02-20T02:25:05.891Z,77.50
2019-02-20T02:27:34.781Z,77.30
2019-02-20T02:30:04.430Z,77.20
2019-02-20T02:32:32.966Z,77.00
2019-02-20T02:35:01.463Z,76.90
2019-02-20T02:37:30.009Z,76.70
2019-02-20T02:39:58.546Z,77.00
2019-02-20T02:42:27.122Z,77.30
2019-02-20T02:44:55.662Z,77.20
2019-02-20T02:47:43.494Z,77.20
2019-02-20T02:50:12.038Z,77.10
2019-02-20T02:52:41.497Z,77.40
2019-02-20T02:55:10.207Z,76.90
2019-02-20T02:57:38.759Z,77.50
2019-02-20T03:00:10.146Z,76.40
2019-02-20T03:02:38.689Z,76.50
2019-02-20T03:05:08.364Z,76.70
2019-02-20T03:07:36.931Z,76.90
2019-02-20T03:10:07.413Z,77.10
2019-02-20T03:12:35.959Z,76.90
2019-02-20T03:15:07.367Z,77.10
2019-02-20T03:17:35.971Z,77.20
2019-02-20T03:20:07.063Z,77.30
2019-02-20T03:22:35.714Z,76.70
2019-02-20T03:25:04.698Z,76.80
2019-02-20T03:27:33.550Z,76.80
2019-02-20T03:30:02.094Z,76.70
2019-02-20T03:32:30.644Z,76.80
2019-02-20T03:34:59.258Z,76.80
2019-02-20T03:37:27.819Z,76.40
2019-02-20T03:39:56.371Z,76.60
2019-02-20T03:42:24.917Z,76.80
2019-02-20T03:44:53.490Z,76.40
2019-02-20T03:47:22.808Z,76.20
2019-02-20T03:49:51.379Z,76.30
2019-02-20T03:52:19.926Z,75.80
2019-02-20T03:54:48.532Z,75.70
2019-02-20T03:57:17.240Z,75.50
2019-02-20T03:59:45.795Z,76.00
2019-02-20T04:02:14.335Z,75.90
2019-02-20T04:04:42.895Z,76.10
2019-02-20T04:07:11.776Z,76.10
2019-02-20T04:09:40.355Z,76.90
2019-02-20T04:12:10.277Z,75.90
2019-02-20T04:14:39.153Z,76.40
2019-02-20T04:17:07.731Z,76.40
2019-02-20T04:19:36.635Z,76.50
2019-02-20T04:22:05.182Z,76.40
2019-02-20T04:24:33.744Z,76.30
2019-02-20T04:27:02.283Z,76.10
2019-02-20T04:29:31.171Z,76.10
2019-02-20T04:31:59.742Z,75.80
2019-02-20T04:34:28.312Z,75.80
2019-02-20T04:36:56.831Z,76.00
2019-02-20T04:39:25.405Z,75.80
2019-02-20T04:41:53.934Z,76.00
2019-02-20T04:44:22.547Z,76.30
2019-02-20T04:46:51.176Z,76.50
2019-02-20T04:49:19.725Z,76.70
2019-02-20T04:51:48.272Z,76.80
2019-02-20T04:54:16.930Z,77.20
2019-02-20T04:56:45.466Z,77.20
2019-02-20T04:59:14.888Z,77.00
2019-02-20T05:01:43.443Z,77.10
2019-02-20T05:04:11.999Z,77.50
2019-02-20T05:06:40.825Z,77.60
2019-02-20T05:09:09.415Z,77.70
2019-02-20T05:11:38.300Z,78.00
2019-02-20T05:14:06.873Z,78.00
2019-02-20T05:16:35.677Z,77.90
2019-02-20T05:19:04.275Z,78.00
2019-02-20T05:21:32.856Z,77.90
2019-02-20T05:24:01.736Z,77.90
2019-02-20T05:26:30.378Z,77.90
2019-02-20T05:28:58.926Z,78.00
2019-02-20T05:31:46.829Z,78.20
2019-02-20T05:34:15.384Z,78.20
2019-02-20T05:36:44.213Z,78.20
2019-02-20T05:39:13.279Z,78.00
2019-02-20T05:41:41.758Z,78.30
2019-02-20T05:44:10.296Z,78.50
2019-02-20T05:46:38.871Z,78.50
2019-02-20T05:49:07.412Z,78.60
2019-02-20T05:51:37.178Z,78.70
2019-02-20T05:54:05.751Z,78.90
2019-02-20T05:56:34.370Z,79.00
2019-02-20T05:59:06.024Z,79.10
2019-02-20T06:01:34.568Z,79.20
2019-02-20T06:04:03.108Z,79.30
2019-02-20T06:06:31.677Z,79.30
2019-02-20T06:09:00.339Z,79.50
2019-02-20T06:11:28.884Z,79.60
2019-02-20T06:13:58.673Z,79.70
2019-02-20T06:16:27.214Z,79.70
2019-02-20T06:18:55.774Z,79.60
2019-02-20T06:21:24.424Z,79.80
2019-02-20T06:23:52.955Z,80.10
2019-02-20T06:26:21.607Z,80.10
2019-02-20T06:28:50.231Z,80.20
2019-02-20T06:31:18.846Z,80.50
2019-02-20T06:33:47.462Z,80.30
2019-02-20T06:36:16.033Z,80.30
2019-02-20T06:38:44.584Z,80.30
2019-02-20T06:41:13.485Z,80.20
2019-02-20T06:43:42.047Z,80.10
2019-02-20T06:46:10.592Z,80.10
2019-02-20T06:48:39.442Z,79.90
2019-02-20T06:51:08.255Z,80.00
2019-02-20T06:53:36.822Z,79.80
2019-02-20T06:56:05.697Z,79.70
2019-02-20T06:58:34.255Z,79.60
2019-02-20T07:01:03.072Z,79.40
2019-02-20T07:03:31.651Z,79.20
2019-02-20T07:06:34.437Z,79.20
2019-02-20T07:09:17.822Z,78.90
2019-02-20T07:12:23.821Z,78.60
2019-02-20T07:15:25.101Z,78.70
2019-02-20T07:17:59.402Z,78.20
2019-02-20T07:20:49.133Z,78.00
2019-02-20T07:23:38.559Z,78.00
2019-02-20T07:26:35.257Z,77.90
2019-02-20T07:29:27.597Z,77.80
2019-02-20T07:31:56.163Z,78.10
2019-02-20T07:34:24.983Z,77.40
2019-02-20T07:36:53.478Z,77.10
2019-02-20T07:39:21.965Z,77.20
2019-02-20T07:41:50.512Z,77.00
2019-02-20T07:44:19.089Z,77.00
2019-02-20T07:46:47.902Z,76.30
2019-02-20T07:49:16.447Z,76.30
2019-02-20T07:51:45.020Z,76.20
2019-02-20T07:54:13.628Z,76.10
2019-02-20T07:56:42.194Z,76.40
2019-02-20T07:59:10.728Z,75.50
2019-02-20T08:01:39.309Z,74.50
2019-02-20T08:04:07.855Z,74.50
2019-02-20T08:06:36.427Z,74.00
2019-02-20T08:09:05.846Z,74.80
2019-02-20T08:11:34.426Z,73.70
2019-02-20T08:14:02.984Z,73.60
2019-02-20T08:16:31.504Z,73.50
2019-02-20T08:19:00.079Z,72.30
2019-02-20T08:21:28.619Z,71.00
2019-02-20T08:24:00.006Z,70.70
2019-02-20T08:26:28.499Z,69.90
2019-02-20T08:28:57.388Z,69.50
2019-02-20T08:31:25.956Z,68.70
2019-02-20T08:33:54.507Z,67.30
2019-02-20T08:36:23.340Z,66.20
2019-02-20T08:38:51.914Z,64.70
2019-02-20T08:41:20.450Z,62.70
2019-02-20T08:43:48.999Z,61.60
2019-02-20T08:46:17.569Z,59.90
2019-02-20T08:48:46.114Z,58.20
2019-02-20T08:51:14.744Z,53.80
2019-02-20T08:53:43.315Z,51.90
2019-02-20T08:56:11.854Z,49.10
2019-02-20T08:58:40.432Z,50.30
2019-02-20T09:01:09.034Z,49.00
2019-02-20T09:03:37.505Z,52.00
2019-02-20T09:06:06.647Z,53.40
2019-02-20T09:08:35.121Z,54.70
2019-02-20T09:11:03.731Z,55.40
2019-02-20T09:13:32.374Z,53.10
2019-02-20T09:16:01.001Z,53.60
2019-02-20T09:18:29.508Z,53.00
2019-02-20T09:20:58.054Z,52.00
2019-02-20T09:23:26.724Z,49.60
2019-02-20T09:25:55.263Z,49.70
2019-02-20T09:28:23.806Z,49.40
2019-02-20T09:30:52.376Z,50.90
2019-02-20T09:33:20.950Z,52.60
2019-02-20T09:35:49.556Z,52.80
2019-02-20T09:38:18.418Z,52.40
2019-02-20T09:40:47.307Z,52.40
2019-02-20T09:43:16.203Z,51.70
2019-02-20T09:45:44.771Z,51.20
2019-02-20T09:48:13.386Z,50.70
2019-02-20T09:50:41.931Z,48.70
2019-02-20T09:53:10.832Z,50.00
2019-02-20T09:55:39.601Z,52.00
2019-02-20T09:58:08.519Z,54.10
2019-02-20T10:00:37.061Z,56.60
2019-02-20T10:03:05.978Z,56.60
2019-02-20T10:05:34.592Z,56.10
2019-02-20T10:08:04.561Z,57.30
2019-02-20T10:10:33.223Z,54.10
2019-02-20T10:13:01.835Z,53.90
2019-02-20T10:15:30.370Z,53.30
2019-02-20T10:17:58.967Z,54.50
2019-02-20T10:20:27.800Z,55.10
2019-02-20T10:22:56.689Z,56.90
2019-02-20T10:25:25.680Z,58.10
2019-02-20T10:27:54.294Z,58.50
2019-02-20T10:30:22.857Z,57.40
2019-02-20T10:32:51.399Z,56.90
2019-02-20T10:35:19.976Z,56.80
2019-02-20T10:37:48.798Z,56.00
2019-02-20T10:40:17.419Z,54.90
2019-02-20T10:42:46.271Z,56.00
2019-02-20T10:45:15.166Z,56.20
2019-02-20T10:47:43.741Z,55.60
2019-02-20T10:50:33.140Z,54.90
2019-02-20T10:53:01.685Z,54.30
2019-02-20T10:55:30.210Z,56.20
2019-02-20T10:57:58.716Z,55.70
2019-02-20T11:00:30.152Z,57.80
2019-02-20T11:03:18.059Z,58.40
2019-02-20T11:05:46.604Z,56.80
2019-02-20T11:08:16.311Z,57.10
2019-02-20T11:10:44.891Z,57.00
2019-02-20T11:13:13.440Z,55.60
2019-02-20T11:15:42.007Z,55.90
2019-02-20T11:18:10.625Z,56.20
2019-02-20T11:20:39.235Z,57.70
2019-02-20T11:23:07.912Z,56.70
2019-02-20T11:25:36.459Z,56.70
2019-02-20T11:28:05.298Z,56.10
2019-02-20T11:30:33.946Z,56.50
2019-02-20T11:33:03.430Z,55.40
2019-02-20T11:35:32.113Z,56.50
2019-02-20T11:38:00.698Z,56.70
2019-02-20T11:40:29.240Z,58.60
2019-02-20T11:42:58.131Z,58.70
2019-02-20T11:45:26.775Z,58.50
2019-02-20T11:47:55.325Z,58.70
2019-02-20T11:50:23.946Z,58.10
2019-02-20T11:52:52.706Z,57.00
2019-02-20T11:55:21.242Z,57.10
2019-02-20T11:57:49.815Z,57.80
2019-02-20T12:00:40.019Z,59.50
2019-02-20T12:03:28.011Z,58.60
2019-02-20T12:05:55.766Z,59.10
2019-02-20T12:08:24.387Z,57.90
2019-02-20T12:10:52.950Z,59.10
2019-02-20T12:13:21.568Z,57.20
2019-02-20T12:15:50.227Z,57.50
2019-02-20T12:18:18.987Z,57.90
2019-02-20T12:20:47.663Z,57.70
2019-02-20T12:23:16.278Z,58.10
2019-02-20T12:25:45.086Z,56.10
2019-02-20T12:28:13.701Z,56.30
2019-02-20T12:30:42.347Z,56.90
2019-02-20T12:33:10.882Z,56.80
2019-02-20T12:35:39.579Z,56.50
2019-02-20T12:38:08.156Z,55.50
2019-02-20T12:40:36.701Z,55.20
2019-02-20T12:43:05.244Z,54.40
2019-02-20T12:45:33.882Z,56.20
2019-02-20T12:48:02.572Z,55.90
2019-02-20T12:50:31.203Z,56.50
2019-02-20T12:53:00.114Z,56.90
2019-02-20T12:55:29.052Z,57.00
2019-02-20T12:57:57.599Z,56.80
2019-02-20T13:00:26.415Z,56.20
2019-02-20T13:02:54.994Z,54.00
2019-02-20T13:05:23.613Z,54.80
2019-02-20T13:07:52.226Z,56.90
2019-02-20T13:10:20.869Z,54.30
2019-02-20T13:12:49.487Z,55.00
2019-02-20T13:15:19.541Z,55.40
2019-02-20T13:17:48.136Z,53.10
2019-02-20T13:20:16.982Z,51.40
2019-02-20T13:22:45.877Z,49.90
2019-02-20T13:25:14.756Z,48.00
2019-02-20T13:27:43.330Z,45.70
2019-02-20T13:30:14.284Z,46.10
2019-02-20T13:32:42.896Z,45.30
2019-02-20T13:35:11.583Z,46.20
2019-02-20T13:37:40.209Z,46.60
2019-02-20T13:40:10.797Z,46.90
2019-02-20T13:42:39.755Z,46.90
2019-02-20T13:45:09.282Z,46.80
2019-02-20T13:47:37.901Z,47.40
2019-02-20T13:50:11.726Z,47.90
2019-02-20T13:52:39.927Z,45.70
2019-02-20T13:55:08.671Z,45.20
2019-02-20T13:57:37.249Z,46.60
2019-02-20T14:00:13.434Z,47.50
2019-02-20T14:02:42.548Z,47.00
2019-02-20T14:05:11.231Z,46.90
2019-02-20T14:07:40.177Z,47.00
2019-02-20T14:10:12.891Z,48.00
2019-02-20T14:12:41.447Z,47.40
2019-02-20T14:15:12.167Z,48.00
2019-02-20T14:17:40.714Z,47.20
2019-02-20T14:20:12.161Z,47.50
2019-02-20T14:22:41.194Z,48.60
2019-02-20T14:25:11.266Z,47.40
2019-02-20T14:27:39.833Z,47.40
2019-02-20T14:30:11.086Z,47.40
2019-02-20T14:32:39.632Z,48.60
2019-02-20T14:35:10.425Z,50.50
2019-02-20T14:37:39.458Z,50.80
2019-02-20T14:40:09.330Z,50.60
2019-02-20T14:42:38.198Z,49.80
2019-02-20T14:45:30.603Z,51.10
2019-02-20T14:47:59.658Z,50.80
2019-02-20T14:50:47.570Z,51.60
2019-02-20T14:53:16.110Z,52.70
2019-02-20T14:55:44.940Z,52.50
2019-02-20T14:58:13.510Z,53.30
2019-02-20T15:00:42.626Z,53.40
2019-02-20T15:03:11.519Z,53.60
2019-02-20T15:05:40.403Z,53.30
2019-02-20T15:08:09.289Z,53.60
2019-02-20T15:10:38.078Z,53.40
2019-02-20T15:13:06.967Z,53.90
2019-02-20T15:15:35.507Z,53.80
2019-02-20T15:18:04.154Z,53.20
2019-02-20T15:20:33.027Z,53.40
2019-02-20T15:23:02.597Z,52.80
2019-02-20T15:25:31.166Z,53.70
2019-02-20T15:27:59.812Z,54.10
2019-02-20T15:30:28.358Z,53.30
2019-02-20T15:32:57.571Z,54.10
2019-02-20T15:35:26.197Z,54.50
2019-02-20T15:37:55.209Z,54.20
2019-02-20T15:40:23.792Z,54.20
2019-02-20T15:42:52.715Z,55.20
2019-02-20T15:45:21.288Z,55.40
2019-02-20T15:47:49.826Z,54.50
2019-02-20T15:50:19.115Z,55.00
2019-02-20T15:52:48.070Z,55.40
2019-02-20T15:55:16.688Z,55.70
2019-02-20T15:57:45.294Z,56.50
2019-02-20T16:00:18.636Z,56.40
2019-02-20T16:02:47.257Z,56.00
2019-02-20T16:05:16.208Z,56.20
2019-02-20T16:07:45.095Z,56.50
2019-02-20T16:10:13.775Z,57.10
2019-02-20T16:12:43.136Z,57.10
2019-02-20T16:15:14.424Z,57.30
2019-02-20T16:17:42.627Z,57.70
2019-02-20T16:20:33.809Z,57.70
2019-02-20T16:23:02.410Z,57.50
2019-02-20T16:25:31.518Z,57.80
2019-02-20T16:28:00.131Z,57.80
2019-02-20T16:30:28.674Z,58.40
2019-02-20T16:32:58.091Z,58.80
2019-02-20T16:35:26.658Z,58.50
2019-02-20T16:37:55.197Z,58.80
2019-02-20T16:40:24.115Z,58.40
2019-02-20T16:42:52.665Z,59.20
2019-02-20T16:45:25.821Z,59.70
2019-02-20T16:47:54.902Z,59.70
2019-02-20T16:50:23.767Z,59.70
2019-02-20T16:52:53.203Z,60.20
2019-02-20T16:55:22.685Z,60.40
2019-02-20T16:57:56.813Z,60.90
2019-02-20T17:00:22.645Z,61.20
2019-02-20T17:02:51.739Z,61.20
2019-02-20T17:05:20.454Z,61.10
2019-02-20T17:07:49.224Z,61.40
2019-02-20T17:10:18.367Z,61.40
2019-02-20T17:12:47.975Z,61.80
2019-02-20T17:15:17.699Z,61.80
2019-02-20T17:17:47.283Z,61.70
2019-02-20T17:20:17.948Z,61.80
2019-02-20T17:22:47.117Z,62.00
2019-02-20T17:25:36.551Z,62.40
2019-02-20T17:28:06.055Z,61.70
2019-02-20T17:30:34.812Z,62.80
2019-02-20T17:33:03.391Z,62.70
2019-02-20T17:35:51.286Z,62.90
2019-02-20T17:38:19.922Z,62.90
2019-02-20T17:40:48.874Z,63.10
2019-02-20T17:43:17.494Z,63.60
2019-02-20T17:45:46.052Z,63.70
2019-02-20T17:48:14.632Z,63.70
2019-02-20T17:50:43.264Z,64.10
2019-02-20T17:53:11.898Z,64.20
2019-02-20T17:55:42.642Z,64.50
2019-02-20T17:58:15.230Z,64.70
2019-02-20T18:00:41.427Z,65.00
2019-02-20T18:03:10.068Z,65.50
2019-02-20T18:05:39.163Z,65.50
2019-02-20T18:08:07.756Z,65.50
2019-02-20T18:10:36.541Z,65.80
2019-02-20T18:13:05.148Z,66.10
2019-02-20T18:15:33.732Z,66.10
2019-02-20T18:18:03.202Z,66.10
2019-02-20T18:20:32.135Z,66.40
2019-02-20T18:23:00.731Z,66.50
2019-02-20T18:25:29.356Z,66.50
2019-02-20T18:27:59.633Z,67.00
2019-02-20T18:30:28.262Z,67.20
2019-02-20T18:32:57.031Z,67.20
2019-02-20T18:35:45.115Z,67.50
2019-02-20T18:38:13.765Z,68.10
2019-02-20T18:40:42.606Z,68.10
2019-02-20T18:43:11.230Z,68.30
2019-02-20T18:45:39.869Z,68.40
2019-02-20T18:48:08.486Z,68.80
2019-02-20T18:50:37.066Z,68.90
2019-02-20T18:53:05.614Z,69.20
2019-02-20T18:55:34.189Z,69.50
2019-02-20T18:58:02.806Z,69.70
2019-02-20T19:00:31.413Z,70.10
2019-02-20T19:03:00.123Z,70.40
2019-02-20T19:05:29.661Z,70.90
2019-02-20T19:07:58.220Z,71.30
2019-02-20T19:10:51.029Z,71.60
2019-02-20T19:17:23.247Z,72.50
2019-02-20T19:20:06.648Z,73.00
2019-02-20T19:23:30.853Z,73.10
2019-02-20T19:26:17.317Z,73.70
2019-02-20T19:29:07.097Z,74.50
2019-02-20T19:31:58.156Z,75.10
2019-02-20T19:34:58.150Z,75.70
2019-02-20T19:37:38.692Z,76.00
2019-02-20T19:40:25.442Z,75.90
2019-02-20T19:43:46.101Z,76.60
2019-02-20T19:46:45.135Z,76.90
2019-02-20T19:49:34.747Z,77.30
2019-02-20T19:52:12.463Z,77.70
2019-02-20T19:55:03.280Z,78.30
2019-02-20T19:57:46.395Z,78.30
2019-02-20T20:00:54.032Z,78.60
2019-02-20T20:03:48.468Z,78.30
2019-02-20T20:06:40.372Z,78.50
2019-02-20T20:09:32.655Z,78.50
2019-02-20T20:15:08.256Z,78.70
2019-02-20T20:18:05.729Z,79.10
2019-02-20T20:21:10.516Z,79.30
2019-02-20T20:23:48.224Z,79.10
2019-02-20T20:26:42.073Z,79.50
2019-02-20T20:29:47.997Z,79.80
2019-02-20T20:33:02.586Z,80.40
2019-02-20T20:36:07.625Z,80.40
2019-02-20T20:38:48.135Z,80.70
2019-02-20T20:41:55.555Z,80.50
2019-02-20T20:44:43.486Z,80.50
2019-02-20T20:47:36.466Z,80.00
2019-02-20T20:50:42.018Z,79.70
2019-02-20T20:53:13.639Z,79.30
2019-02-20T20:56:05.759Z,78.90
2019-02-20T20:59:17.699Z,78.40
2019-02-20T21:01:46.587Z,78.00
2019-02-20T21:04:37.842Z,78.00
2019-02-20T21:07:27.257Z,77.60
2019-02-20T21:10:10.862Z,78.00
2019-02-20T21:12:57.806Z,78.30
2019-02-20T21:15:47.235Z,78.80
2019-02-20T21:18:35.482Z,78.60
2019-02-20T21:21:07.103Z,78.50
2019-02-20T21:24:14.851Z,78.30
2019-02-20T21:27:04.349Z,78.00
2019-02-20T21:29:52.467Z,77.90
2019-02-20T21:32:47.796Z,77.70
2019-02-20T21:35:22.454Z,77.70
2019-02-20T21:38:06.076Z,77.60
2019-02-20T21:40:37.719Z,77.80
2019-02-20T21:43:30.119Z,77.90
2019-02-20T21:46:22.255Z,78.00
2019-02-20T21:48:56.819Z,77.70
2019-02-20T21:51:40.102Z,77.60
2019-02-20T21:54:27.845Z,77.50
2019-02-20T21:57:05.419Z,77.30
2019-02-20T21:59:59.866Z,76.90
2019-02-20T22:02:52.135Z,76.70
2019-02-20T22:05:41.558Z,76.60
2019-02-20T22:08:38.233Z,76.60
2019-02-20T22:11:16.140Z,76.60
2019-02-20T22:13:59.957Z,76.90
2019-02-20T22:16:42.014Z,76.80
2019-02-20T22:19:40.618Z,76.60
2019-02-20T22:22:09.908Z,76.60
2019-02-20T22:24:59.623Z,76.50
2019-02-20T22:27:42.591Z,76.40
2019-02-20T22:30:31.838Z,76.40
2019-02-20T22:33:06.330Z,76.60
2019-02-20T22:35:54.432Z,76.60
2019-02-20T22:38:24.093Z,76.80
2019-02-20T22:40:58.272Z,77.00
2019-02-20T22:44:00.813Z,77.30
2019-02-20T22:46:57.723Z,77.50
2019-02-20T22:49:49.023Z,77.70
2019-02-20T22:52:47.670Z,77.90
2019-02-20T22:55:32.178Z,78.10
2019-02-20T22:58:09.640Z,78.20
2019-02-20T23:01:00.359Z,79.50
2019-02-20T23:03:34.846Z,79.20
2019-02-20T23:06:27.259Z,79.30
2019-02-20T23:09:11.135Z,79.30
2019-02-20T23:12:03.301Z,79.40
2019-02-20T23:14:34.956Z,79.40
2019-02-20T23:17:03.482Z,79.70
2019-02-20T23:19:32.087Z,79.70
2019-02-20T23:22:00.589Z,79.60
2019-02-20T23:24:29.389Z,79.70
2019-02-20T23:26:58.286Z,79.60
2019-02-20T23:29:26.851Z,79.80
2019-02-20T23:31:55.402Z,80.20
2019-02-20T23:34:24.231Z,79.80
2019-02-20T23:36:53.132Z,79.80
2019-02-20T23:39:21.666Z,79.80
2019-02-20T23:41:50.210Z,79.50
2019-02-20T23:44:19.079Z,79.50
2019-02-20T23:46:47.966Z,79.50
2019-02-20T23:49:16.510Z,79.50
2019-02-20T23:51:45.075Z,80.60
2019-02-20T23:54:13.622Z,79.70
2019-02-20T23:56:42.163Z,80.10
2019-02-20T23:59:13.706Z,80.30
